PWSweather.com
Personal Weather Stations
Station Observations
KMIEASTT1
Tawas Bay, East Tawas, MI 48730

Tawas BayEast Tawas, MI 48730

Lat: 44.28, Lon: -83.48

Elevation: 600

Station Type: Davis VantagePro

http://www.tawasbayweather.com

High Low Average
Temperature 23.9°F-4.5°C 1.8°F-16.8°C 13.2°F-10.4°C
Dew Point 19.6°F-6.9°C -3.1°F-19.5°C 9.5°F-12.5°C
Winds 11.0 mph 17.7 kmh Calm Calm 4.0 mph SW6.4 kmh SW
Wind Gusts 19.0 mph30.6 kmh -- 6.0 mph9.7 kmh
Humidity 88% 78% 85%
Pressure 30.90 in1046.4 mb 30.28 in1025.4 mb -
Precipitation 0.00 in0.0 mm - -
Hour Temp Dew Point Humidity Winds Wind Gusts Pressure Precip Precip Rate Daily Precip Total
12:00 AM 5.4°F-14.8°C 1.9°F-16.7°C 85% 1.0 mph WSW1.6 kmh WSW 1.0 mph1.6 kmh 30.87 in1045.4 mb 0.00 in0.0 mm 0.00 in0.0 mm 0.00 in0.0 mm
12:15 AM 5.1°F-14.9°C 1.8°F-16.8°C 86% 1.0 mph W1.6 kmh W 2.0 mph3.2 kmh 30.87 in1045.4 mb 0.00 in0.0 mm 0.00 in0.0 mm 0.00 in0.0 mm
12:30 AM 4.5°F-15.3°C 1.3°F-17.1°C 86% 2.0 mph W3.2 kmh W 3.0 mph4.8 kmh 30.87 in1045.4 mb 0.00 in0.0 mm 0.00 in0.0 mm 0.00 in0.0 mm
12:45 AM 4.0°F-15.6°C 0.8°F-17.3°C 86% 2.0 mph W3.2 kmh W 2.0 mph3.2 kmh 30.87 in1045.4 mb 0.00 in0.0 mm 0.00 in0.0 mm 0.00 in0.0 mm
01:00 AM 3.8°F-15.7°C 0.6°F-17.4°C 86% Calm Calm 2.0 mph3.2 kmh 30.87 in1045.4 mb 0.00 in0.0 mm 0.00 in0.0 mm 0.00 in0.0 mm
01:15 AM 3.7°F-15.7°C 0.5°F-17.5°C 86% Calm Calm 2.0 mph3.2 kmh 30.88 in1045.7 mb 0.00 in0.0 mm 0.00 in0.0 mm 0.00 in0.0 mm
01:30 AM 3.8°F-15.7°C 0.6°F-17.4°C 86% 1.0 mph W1.6 kmh W 2.0 mph3.2 kmh 30.88 in1045.7 mb 0.00 in0.0 mm 0.00 in0.0 mm 0.00 in0.0 mm
01:45 AM 3.5°F-15.8°C 0.3°F-17.6°C 86% 1.0 mph W1.6 kmh W 2.0 mph3.2 kmh 30.88 in1045.7 mb 0.00 in0.0 mm 0.00 in0.0 mm 0.00 in0.0 mm
02:04 AM 3.4°F-15.9°C 0.2°F-17.7°C 86% 2.0 mph W3.2 kmh W 3.0 mph4.8 kmh 30.88 in1045.7 mb 0.00 in0.0 mm 0.00 in0.0 mm 0.00 in0.0 mm
02:16 AM 3.2°F-16.0°C 0.0°F-17.8°C 86% 1.0 mph W1.6 kmh W 3.0 mph4.8 kmh 30.89 in1046.1 mb 0.00 in0.0 mm 0.00 in0.0 mm 0.00 in0.0 mm
02:33 AM 3.3°F-15.9°C 0.1°F-17.7°C 86% 1.0 mph W1.6 kmh W 2.0 mph3.2 kmh 30.89 in1046.1 mb 0.00 in0.0 mm 0.00 in0.0 mm 0.00 in0.0 mm
02:45 AM 3.2°F-16.0°C -0.3°F-17.9°C 85% Calm Calm 1.0 mph1.6 kmh 30.89 in1046.1 mb 0.00 in0.0 mm 0.00 in0.0 mm 0.00 in0.0 mm
03:00 AM 2.9°F-16.2°C -0.6°F-18.1°C 85% 1.0 mph W1.6 kmh W 2.0 mph3.2 kmh 30.90 in1046.4 mb 0.00 in0.0 mm 0.00 in0.0 mm 0.00 in0.0 mm
03:15 AM 2.8°F-16.2°C -0.4°F-18.0°C 86% Calm Calm 3.0 mph4.8 kmh 30.88 in1045.7 mb 0.00 in0.0 mm 0.00 in0.0 mm 0.00 in0.0 mm
03:30 AM 2.8°F-16.2°C -0.4°F-18.0°C 86% 2.0 mph WNW3.2 kmh WNW 2.0 mph3.2 kmh 30.88 in1045.7 mb 0.00 in0.0 mm 0.00 in0.0 mm 0.00 in0.0 mm
03:45 AM 2.6°F-16.3°C -0.6°F-18.1°C 86% Calm Calm 3.0 mph4.8 kmh 30.88 in1045.7 mb 0.00 in0.0 mm 0.00 in0.0 mm 0.00 in0.0 mm
04:00 AM 2.6°F-16.3°C -0.6°F-18.1°C 86% 1.0 mph NW1.6 kmh NW 2.0 mph3.2 kmh 30.87 in1045.4 mb 0.00 in0.0 mm 0.00 in0.0 mm 0.00 in0.0 mm
04:15 AM 2.5°F-16.4°C -0.7°F-18.2°C 86% 1.0 mph NW1.6 kmh NW 2.0 mph3.2 kmh 30.87 in1045.4 mb 0.00 in0.0 mm 0.00 in0.0 mm 0.00 in0.0 mm
04:30 AM 2.7°F-16.3°C -0.5°F-18.1°C 86% 2.0 mph NW3.2 kmh NW 2.0 mph3.2 kmh 30.87 in1045.4 mb 0.00 in0.0 mm 0.00 in0.0 mm 0.00 in0.0 mm
04:45 AM 2.8°F-16.2°C -0.4°F-18.0°C 86% Calm Calm 2.0 mph3.2 kmh 30.86 in1045.0 mb 0.00 in0.0 mm 0.00 in0.0 mm 0.00 in0.0 mm
05:00 AM 3.2°F-16.0°C 0.0°F-17.8°C 86% Calm Calm 1.0 mph1.6 kmh 30.86 in1045.0 mb 0.00 in0.0 mm 0.00 in0.0 mm 0.00 in0.0 mm
05:15 AM 3.0°F-16.1°C -0.5°F-18.1°C 85% 1.0 mph NW1.6 kmh NW 2.0 mph3.2 kmh 30.86 in1045.0 mb 0.00 in0.0 mm 0.00 in0.0 mm 0.00 in0.0 mm
05:30 AM 2.7°F-16.3°C -0.8°F-18.2°C 85% 1.0 mph NW1.6 kmh NW 2.0 mph3.2 kmh 30.86 in1045.0 mb 0.00 in0.0 mm 0.00 in0.0 mm 0.00 in0.0 mm
05:45 AM 2.5°F-16.4°C -1.0°F-18.3°C 85% 1.0 mph NW1.6 kmh NW 2.0 mph3.2 kmh 30.86 in1045.0 mb 0.00 in0.0 mm 0.00 in0.0 mm 0.00 in0.0 mm
06:00 AM 2.6°F-16.3°C -0.9°F-18.3°C 85% Calm Calm 1.0 mph1.6 kmh 30.86 in1045.0 mb 0.00 in0.0 mm 0.00 in0.0 mm 0.00 in0.0 mm
06:15 AM 2.7°F-16.3°C -0.8°F-18.2°C 85% Calm Calm 1.0 mph1.6 kmh 30.85 in1044.7 mb 0.00 in0.0 mm 0.00 in0.0 mm 0.00 in0.0 mm
06:30 AM 2.3°F-16.5°C -1.2°F-18.4°C 85% Calm Calm 2.0 mph3.2 kmh 30.84 in1044.4 mb 0.00 in0.0 mm 0.00 in0.0 mm 0.00 in0.0 mm
06:45 AM 12.2°F-11.0°C 8.6°F-13.0°C 85% Calm Calm 2.0 mph3.2 kmh 30.84 in1044.4 mb 0.00 in0.0 mm 0.00 in0.0 mm 0.00 in0.0 mm
07:00 AM 1.9°F-16.7°C -3.1°F-19.5°C 79% 1.0 mph NW1.6 kmh NW 1.0 mph1.6 kmh 30.83 in1044.0 mb 0.00 in0.0 mm 0.00 in0.0 mm 0.00 in0.0 mm
07:15 AM 2.0°F-16.7°C -1.7°F-18.7°C 84% Calm Calm -- 30.82 in1043.7 mb 0.00 in0.0 mm 0.00 in0.0 mm 0.00 in0.0 mm
07:30 AM 2.0°F-16.7°C -1.7°F-18.7°C 84% 1.0 mph NW1.6 kmh NW 2.0 mph3.2 kmh 30.81 in1043.3 mb 0.00 in0.0 mm 0.00 in0.0 mm 0.00 in0.0 mm
07:45 AM 2.1°F-16.6°C -1.6°F-18.7°C 84% Calm Calm 2.0 mph3.2 kmh 30.81 in1043.3 mb 0.00 in0.0 mm 0.00 in0.0 mm 0.00 in0.0 mm
08:00 AM 2.3°F-16.5°C -1.2°F-18.4°C 85% 1.0 mph N1.6 kmh N 3.0 mph4.8 kmh 30.81 in1043.3 mb 0.00 in0.0 mm 0.00 in0.0 mm 0.00 in0.0 mm
08:15 AM 2.2°F-16.6°C -1.3°F-18.5°C 85% 1.0 mph N1.6 kmh N 1.0 mph1.6 kmh 30.81 in1043.3 mb 0.00 in0.0 mm 0.00 in0.0 mm 0.00 in0.0 mm
08:30 AM 2.4°F-16.4°C -0.8°F-18.2°C 86% 2.0 mph N3.2 kmh N 2.0 mph3.2 kmh 30.81 in1043.3 mb 0.00 in0.0 mm 0.00 in0.0 mm 0.00 in0.0 mm
08:45 AM 2.2°F-16.6°C -1.3°F-18.5°C 85% 2.0 mph N3.2 kmh N 3.0 mph4.8 kmh 30.81 in1043.3 mb 0.00 in0.0 mm 0.00 in0.0 mm 0.00 in0.0 mm
09:00 AM 1.8°F-16.8°C -1.7°F-18.7°C 85% 3.0 mph N4.8 kmh N 4.0 mph6.4 kmh 30.81 in1043.3 mb 0.00 in0.0 mm 0.00 in0.0 mm 0.00 in0.0 mm
09:15 AM 2.3°F-16.5°C -0.9°F-18.3°C 86% 2.0 mph N3.2 kmh N 3.0 mph4.8 kmh 30.81 in1043.3 mb 0.00 in0.0 mm 0.00 in0.0 mm 0.00 in0.0 mm
09:30 AM 3.6°F-15.8°C 0.6°F-17.4°C 87% Calm Calm 2.0 mph3.2 kmh 30.82 in1043.7 mb 0.00 in0.0 mm 0.00 in0.0 mm 0.00 in0.0 mm
09:45 AM 5.5°F-14.7°C 2.5°F-16.4°C 87% Calm Calm 2.0 mph3.2 kmh 30.81 in1043.3 mb 0.00 in0.0 mm 0.00 in0.0 mm 0.00 in0.0 mm
10:00 AM 7.8°F-13.4°C 4.7°F-15.2°C 87% Calm Calm -- 30.81 in1043.3 mb 0.00 in0.0 mm 0.00 in0.0 mm 0.00 in0.0 mm
10:15 AM 8.0°F-13.3°C 4.2°F-15.4°C 84% 2.0 mph NNW3.2 kmh NNW 2.0 mph3.2 kmh 30.80 in1043.0 mb 0.00 in0.0 mm 0.00 in0.0 mm 0.00 in0.0 mm
10:30 AM 10.2°F-12.1°C 6.9°F-13.9°C 86% Calm Calm 1.0 mph1.6 kmh 30.80 in1043.0 mb 0.00 in0.0 mm 0.00 in0.0 mm 0.00 in0.0 mm
10:45 AM 10.9°F-11.7°C 7.5°F-13.6°C 86% 1.0 mph NNW1.6 kmh NNW 1.0 mph1.6 kmh 30.80 in1043.0 mb 0.00 in0.0 mm 0.00 in0.0 mm 0.00 in0.0 mm
11:00 AM 13.2°F-10.4°C 9.0°F-12.8°C 83% 2.0 mph N3.2 kmh N 3.0 mph4.8 kmh 30.81 in1043.3 mb 0.00 in0.0 mm 0.00 in0.0 mm 0.00 in0.0 mm
11:15 AM 12.0°F-11.1°C 8.1°F-13.3°C 84% 3.0 mph SW4.8 kmh SW 5.0 mph8.0 kmh 30.80 in1043.0 mb 0.00 in0.0 mm 0.00 in0.0 mm 0.00 in0.0 mm
11:30 AM 13.4°F-10.3°C 10.0°F-12.2°C 86% 5.0 mph S8.0 kmh S 6.0 mph9.7 kmh 30.79 in1042.7 mb 0.00 in0.0 mm 0.00 in0.0 mm 0.00 in0.0 mm
11:45 AM 14.7°F-9.6°C 11.3°F-11.5°C 86% 4.0 mph S6.4 kmh S 7.0 mph11.3 kmh 30.79 in1042.7 mb 0.00 in0.0 mm 0.00 in0.0 mm 0.00 in0.0 mm
12:00 PM 15.7°F-9.1°C 12.5°F-10.8°C 87% 7.0 mph S11.3 kmh S 8.0 mph12.9 kmh 30.77 in1042.0 mb 0.00 in0.0 mm 0.00 in0.0 mm 0.00 in0.0 mm
12:15 PM 16.7°F-8.5°C 13.5°F-10.3°C 87% 9.0 mph S14.5 kmh S 11.0 mph17.7 kmh 30.76 in1041.7 mb 0.00 in0.0 mm 0.00 in0.0 mm 0.00 in0.0 mm
12:30 PM 16.3°F-8.7°C 13.4°F-10.3°C 88% 9.0 mph S14.5 kmh S 11.0 mph17.7 kmh 30.76 in1041.7 mb 0.00 in0.0 mm 0.00 in0.0 mm 0.00 in0.0 mm
12:45 PM 16.8°F-8.4°C 13.6°F-10.2°C 87% 8.0 mph S12.9 kmh S 10.0 mph16.1 kmh 30.75 in1041.3 mb 0.00 in0.0 mm 0.00 in0.0 mm 0.00 in0.0 mm
01:00 PM 16.8°F-8.4°C 13.4°F-10.3°C 86% 8.0 mph S12.9 kmh S 10.0 mph16.1 kmh 30.73 in1040.6 mb 0.00 in0.0 mm 0.00 in0.0 mm 0.00 in0.0 mm
01:15 PM 16.6°F-8.6°C 12.9°F-10.6°C 85% 8.0 mph SSW12.9 kmh SSW 10.0 mph16.1 kmh 30.73 in1040.6 mb 0.00 in0.0 mm 0.00 in0.0 mm 0.00 in0.0 mm
01:30 PM 16.4°F-8.7°C 12.7°F-10.7°C 85% 7.0 mph SSW11.3 kmh SSW 11.0 mph17.7 kmh 30.72 in1040.3 mb 0.00 in0.0 mm 0.00 in0.0 mm 0.00 in0.0 mm
01:45 PM 17.6°F-8.0°C 13.9°F-10.1°C 85% 8.0 mph S12.9 kmh S 10.0 mph16.1 kmh 30.70 in1039.6 mb 0.00 in0.0 mm 0.00 in0.0 mm 0.00 in0.0 mm
02:00 PM 18.4°F-7.6°C 14.4°F-9.8°C 84% 7.0 mph SSW11.3 kmh SSW 11.0 mph17.7 kmh 30.69 in1039.3 mb 0.00 in0.0 mm 0.00 in0.0 mm 0.00 in0.0 mm
02:15 PM 18.7°F-7.4°C 15.0°F-9.4°C 85% 7.0 mph SSW11.3 kmh SSW 9.0 mph14.5 kmh 30.68 in1038.9 mb 0.00 in0.0 mm 0.00 in0.0 mm 0.00 in0.0 mm
02:30 PM 19.0°F-7.2°C 15.2°F-9.3°C 85% 9.0 mph S14.5 kmh S 11.0 mph17.7 kmh 30.67 in1038.6 mb 0.00 in0.0 mm 0.00 in0.0 mm 0.00 in0.0 mm
02:45 PM 19.2°F-7.1°C 15.4°F-9.2°C 85% 9.0 mph S14.5 kmh S 9.0 mph14.5 kmh 30.64 in1037.6 mb 0.00 in0.0 mm 0.00 in0.0 mm 0.00 in0.0 mm
03:00 PM 19.4°F-7.0°C 15.6°F-9.1°C 85% 7.0 mph SSE11.3 kmh SSE 10.0 mph16.1 kmh 30.63 in1037.3 mb 0.00 in0.0 mm 0.00 in0.0 mm 0.00 in0.0 mm
03:15 PM 20.0°F-6.7°C 16.0°F-8.9°C 84% 8.0 mph S12.9 kmh S 10.0 mph16.1 kmh 30.61 in1036.6 mb 0.00 in0.0 mm 0.00 in0.0 mm 0.00 in0.0 mm
03:30 PM 21.0°F-6.1°C 16.4°F-8.7°C 82% 8.0 mph S12.9 kmh S 8.0 mph12.9 kmh 30.60 in1036.2 mb 0.00 in0.0 mm 0.00 in0.0 mm 0.00 in0.0 mm
03:45 PM 20.6°F-6.3°C 16.0°F-8.9°C 82% 8.0 mph S12.9 kmh S 10.0 mph16.1 kmh 30.59 in1035.9 mb 0.00 in0.0 mm 0.00 in0.0 mm 0.00 in0.0 mm
04:00 PM 20.5°F-6.4°C 16.2°F-8.8°C 83% 6.0 mph S9.7 kmh S 8.0 mph12.9 kmh 30.58 in1035.6 mb 0.00 in0.0 mm 0.00 in0.0 mm 0.00 in0.0 mm
04:15 PM 20.5°F-6.4°C 16.4°F-8.7°C 84% 5.0 mph S8.0 kmh S 8.0 mph12.9 kmh 30.59 in1035.9 mb 0.00 in0.0 mm 0.00 in0.0 mm 0.00 in0.0 mm
04:30 PM 20.6°F-6.3°C 16.3°F-8.7°C 83% 6.0 mph S9.7 kmh S 9.0 mph14.5 kmh 30.58 in1035.6 mb 0.00 in0.0 mm 0.00 in0.0 mm 0.00 in0.0 mm
04:45 PM 20.9°F-6.2°C 16.6°F-8.6°C 83% 7.0 mph S11.3 kmh S 10.0 mph16.1 kmh 30.57 in1035.2 mb 0.00 in0.0 mm 0.00 in0.0 mm 0.00 in0.0 mm
05:00 PM 21.1°F-6.1°C 16.8°F-8.4°C 83% 7.0 mph S11.3 kmh S 9.0 mph14.5 kmh 30.56 in1034.9 mb 0.00 in0.0 mm 0.00 in0.0 mm 0.00 in0.0 mm
05:15 PM 21.6°F-5.8°C 17.5°F-8.1°C 84% 8.0 mph S12.9 kmh S 8.0 mph12.9 kmh 30.55 in1034.5 mb 0.00 in0.0 mm 0.00 in0.0 mm 0.00 in0.0 mm
05:30 PM 22.8°F-5.1°C 17.3°F-8.2°C 79% 11.0 mph WNW17.7 kmh WNW 13.0 mph20.9 kmh 30.53 in1033.9 mb 0.00 in0.0 mm 0.00 in0.0 mm 0.00 in0.0 mm
05:45 PM 22.9°F-5.1°C 18.0°F-7.8°C 81% 11.0 mph WNW17.7 kmh WNW 16.0 mph25.7 kmh 30.52 in1033.5 mb 0.00 in0.0 mm 0.00 in0.0 mm 0.00 in0.0 mm
06:00 PM 23.3°F-4.8°C 18.1°F-7.7°C 80% 10.0 mph NW16.1 kmh NW 19.0 mph30.6 kmh 30.51 in1033.2 mb 0.00 in0.0 mm 0.00 in0.0 mm 0.00 in0.0 mm
06:15 PM 23.6°F-4.7°C 17.8°F-7.9°C 78% 9.0 mph NW14.5 kmh NW 16.0 mph25.7 kmh 30.50 in1032.8 mb 0.00 in0.0 mm 0.00 in0.0 mm 0.00 in0.0 mm
06:30 PM 23.9°F-4.5°C 18.1°F-7.7°C 78% 10.0 mph NW16.1 kmh NW 16.0 mph25.7 kmh 30.50 in1032.8 mb 0.00 in0.0 mm 0.00 in0.0 mm 0.00 in0.0 mm
06:45 PM 22.1°F-5.5°C 18.0°F-7.8°C 84% 8.0 mph S12.9 kmh S 10.0 mph16.1 kmh 30.49 in1032.5 mb 0.00 in0.0 mm 0.00 in0.0 mm 0.00 in0.0 mm
07:00 PM 22.3°F-5.4°C 18.2°F-7.7°C 84% 9.0 mph S14.5 kmh S 12.0 mph19.3 kmh 30.48 in1032.2 mb 0.00 in0.0 mm 0.00 in0.0 mm 0.00 in0.0 mm
07:15 PM 22.1°F-5.5°C 18.6°F-7.4°C 86% 6.0 mph S9.7 kmh S 7.0 mph11.3 kmh 30.47 in1031.8 mb 0.00 in0.0 mm 0.00 in0.0 mm 0.00 in0.0 mm
07:30 PM 22.1°F-5.5°C 18.8°F-7.3°C 87% 7.0 mph S11.3 kmh S 8.0 mph12.9 kmh 30.46 in1031.5 mb 0.00 in0.0 mm 0.00 in0.0 mm 0.00 in0.0 mm
07:45 PM 22.4°F-5.3°C 19.1°F-7.2°C 87% 5.0 mph SSW8.0 kmh SSW 7.0 mph11.3 kmh 30.45 in1031.2 mb 0.00 in0.0 mm 0.00 in0.0 mm 0.00 in0.0 mm
08:00 PM 22.5°F-5.3°C 19.2°F-7.1°C 87% 4.0 mph S6.4 kmh S 6.0 mph9.7 kmh 30.44 in1030.8 mb 0.00 in0.0 mm 0.00 in0.0 mm 0.00 in0.0 mm
08:15 PM 22.6°F-5.2°C 19.6°F-6.9°C 88% 2.0 mph SSW3.2 kmh SSW 4.0 mph6.4 kmh 30.44 in1030.8 mb 0.00 in0.0 mm 0.00 in0.0 mm 0.00 in0.0 mm
08:30 PM 22.5°F-5.3°C 19.5°F-6.9°C 88% 4.0 mph SSW6.4 kmh SSW 4.0 mph6.4 kmh 30.43 in1030.5 mb 0.00 in0.0 mm 0.00 in0.0 mm 0.00 in0.0 mm
08:45 PM 22.1°F-5.5°C 18.8°F-7.3°C 87% 3.0 mph SSW4.8 kmh SSW 4.0 mph6.4 kmh 30.42 in1030.1 mb 0.00 in0.0 mm 0.00 in0.0 mm 0.00 in0.0 mm
09:00 PM 21.8°F-5.7°C 18.5°F-7.5°C 87% Calm Calm 2.0 mph3.2 kmh 30.42 in1030.1 mb 0.00 in0.0 mm 0.00 in0.0 mm 0.00 in0.0 mm
09:15 PM 22.2°F-5.4°C 19.2°F-7.1°C 88% 3.0 mph S4.8 kmh S 4.0 mph6.4 kmh 30.42 in1030.1 mb 0.00 in0.0 mm 0.00 in0.0 mm 0.00 in0.0 mm
09:30 PM 23.2°F-4.9°C 19.1°F-7.2°C 84% 8.0 mph SSE12.9 kmh SSE 10.0 mph16.1 kmh 30.39 in1029.1 mb 0.00 in0.0 mm 0.00 in0.0 mm 0.00 in0.0 mm
09:45 PM 23.4°F-4.8°C 19.3°F-7.1°C 84% 7.0 mph SSE11.3 kmh SSE 10.0 mph16.1 kmh 30.38 in1028.8 mb 0.00 in0.0 mm 0.00 in0.0 mm 0.00 in0.0 mm
10:00 PM 22.7°F-5.2°C 17.8°F-7.9°C 81% 8.0 mph S12.9 kmh S 10.0 mph16.1 kmh 30.37 in1028.4 mb 0.00 in0.0 mm 0.00 in0.0 mm 0.00 in0.0 mm
10:15 PM 21.6°F-5.8°C 17.0°F-8.3°C 82% 5.0 mph S8.0 kmh S 9.0 mph14.5 kmh 30.36 in1028.1 mb 0.00 in0.0 mm 0.00 in0.0 mm 0.00 in0.0 mm
10:30 PM 20.7°F-6.3°C 16.6°F-8.6°C 84% 3.0 mph SSW4.8 kmh SSW 4.0 mph6.4 kmh 30.36 in1028.1 mb 0.00 in0.0 mm 0.00 in0.0 mm 0.00 in0.0 mm
10:45 PM 18.8°F-7.3°C 14.8°F-9.6°C 84% 6.0 mph SSW9.7 kmh SSW 7.0 mph11.3 kmh 30.34 in1027.4 mb 0.00 in0.0 mm 0.00 in0.0 mm 0.00 in0.0 mm
11:00 PM 18.1°F-7.7°C 14.4°F-9.8°C 85% 5.0 mph SW8.0 kmh SW 6.0 mph9.7 kmh 30.34 in1027.4 mb 0.00 in0.0 mm 0.00 in0.0 mm 0.00 in0.0 mm
11:15 PM 17.8°F-7.9°C 14.3°F-9.8°C 86% 1.0 mph SW1.6 kmh SW 3.0 mph4.8 kmh 30.33 in1027.1 mb 0.00 in0.0 mm 0.00 in0.0 mm 0.00 in0.0 mm
11:30 PM 18.4°F-7.6°C 15.5°F-9.2°C 88% 1.0 mph SW1.6 kmh SW 2.0 mph3.2 kmh 30.33 in1027.1 mb 0.00 in0.0 mm 0.00 in0.0 mm 0.00 in0.0 mm
11:45 PM 18.1°F-7.7°C 14.9°F-9.5°C 87% 3.0 mph SE4.8 kmh SE 4.0 mph6.4 kmh 30.32 in1026.8 mb 0.00 in0.0 mm 0.00 in0.0 mm 0.00 in0.0 mm